Time;durP1;ratioP1;P1;durP2;ratioP2;P2;SDS_P1;SDS_P2;PMS_P1;PMS_P2;Temp;Humidity;BMP_temperature;BMP_pressure;BME280_temperature;BME280_humidity;BME280_pressure;Samples;Min_cycle;Max_cycle;Signal;HPM_P1;HPM_P2
2021/11/04 00:02:44;;;;;;;18.40;12.98;;;;;;;9.45;72.03;96240.47;10542647;28;20036;-76
2021/11/04 00:08:05;;;;;;;16.58;12.05;;;;;;;9.46;72.10;96239.16;10555273;28;20416;-74
2021/11/04 00:13:27;;;;;;;15.93;12.43;;;;;;;9.45;72.03;96232.84;10513084;27;20105;-77
2021/11/04 00:18:48;;;;;;;17.02;12.85;;;;;;;9.48;72.07;96239.25;10540791;28;20142;-74
2021/11/04 00:24:09;;;;;;;16.20;11.65;;;;;;;9.49;72.04;96234.38;10540352;28;20078;-74
2021/11/04 00:29:31;;;;;;;16.83;11.55;;;;;;;9.44;72.31;96225.81;10526388;28;20039;-76
2021/11/04 00:34:52;;;;;;;17.08;12.45;;;;;;;9.46;72.04;96214.09;10526342;28;20036;-74
2021/11/04 00:40:16;;;;;;;19.98;12.10;;;;;;;9.44;72.19;96183.34;10540044;28;20032;-75
2021/11/04 00:45:38;;;;;;;18.63;13.57;;;;;;;9.45;72.02;96170.84;10526108;28;20050;-76
2021/11/04 00:50:59;;;;;;;20.58;12.52;;;;;;;9.42;71.99;96181.19;10539325;28;20381;-74
2021/11/04 00:56:20;;;;;;;18.63;13.27;;;;;;;9.44;72.00;96183.34;10539254;28;20040;-75
2021/11/04 01:01:41;;;;;;;17.75;13.15;;;;;;;9.49;72.25;96162.69;10539359;28;20104;-75
2021/11/04 01:07:03;;;;;;;16.95;12.45;;;;;;;9.50;72.21;96153.00;10539043;28;20431;-76
2021/11/04 01:12:24;;;;;;;17.92;13.10;;;;;;;9.48;72.22;96149.41;10511231;28;20454;-74
2021/11/04 01:17:45;;;;;;;19.15;13.38;;;;;;;9.48;72.27;96155.69;10538732;28;20056;-74
2021/11/04 01:23:07;;;;;;;17.40;13.50;;;;;;;9.46;72.01;96131.25;10525299;28;20053;-75
2021/11/04 01:28:28;;;;;;;16.23;12.90;;;;;;;9.48;72.40;96097.19;10538539;28;20043;-74
2021/11/04 01:33:49;;;;;;;17.63;12.77;;;;;;;9.52;72.42;96093.88;10508378;28;20073;-76
2021/11/04 01:39:10;;;;;;;17.20;12.63;;;;;;;9.51;71.93;96078.50;10538482;28;20038;-76
2021/11/04 01:44:32;;;;;;;18.02;13.10;;;;;;;9.51;72.22;96070.16;10521517;28;20097;-75
2021/11/04 01:49:53;;;;;;;17.98;12.20;;;;;;;9.52;72.06;96061.16;10552420;28;20050;-74
2021/11/04 01:55:16;;;;;;;15.73;12.82;;;;;;;9.54;72.58;96063.31;10521564;28;20073;-76
2021/11/04 02:00:37;;;;;;;16.17;12.00;;;;;;;9.52;72.24;96060.44;10560000;28;20036;-77
2021/11/04 02:06:09;;;;;;;16.48;13.10;;;;;;;9.58;72.49;96052.38;10545399;28;20097;-76
2021/11/04 02:11:48;;;;;;;17.65;12.90;;;;;;;9.58;72.47;96047.50;10546447;28;20373;-74
2021/11/04 02:17:09;;;;;;;17.88;12.75;;;;;;;9.60;71.96;96033.66;10546475;28;20067;-76
2021/11/04 02:22:58;;;;;;;18.23;13.27;;;;;;;9.64;72.05;96044.25;10545069;28;20043;-76
2021/11/04 02:28:19;;;;;;;17.17;13.32;;;;;;;9.65;72.28;96012.25;10544725;28;20047;-75
2021/11/04 02:33:41;;;;;;;16.55;12.40;;;;;;;9.63;72.47;96012.91;10544781;28;20039;-75
2021/11/04 02:39:02;;;;;;;17.08;13.20;;;;;;;9.63;72.50;95998.25;10517030;28;20089;-75
2021/11/04 02:44:25;;;;;;;15.45;12.93;;;;;;;9.62;72.57;96010.75;10544758;28;20046;-76
2021/11/04 02:49:48;;;;;;;18.70;13.52;;;;;;;9.60;72.90;96005.09;10558467;28;20122;-74
2021/11/04 02:55:10;;;;;;;17.60;12.82;;;;;;;9.60;72.56;95993.94;10528369;28;20114;-76
2021/11/04 03:00:31;;;;;;;20.40;13.93;;;;;;;9.60;72.88;95977.94;10543650;28;20063;-74
2021/11/04 03:05:52;;;;;;;18.40;13.75;;;;;;;9.56;72.69;95969.44;10558004;28;20049;-74
2021/11/04 03:11:13;;;;;;;18.58;14.07;;;;;;;9.56;73.22;95977.06;10526877;28;20051;-74
2021/11/04 03:16:40;;;;;;;19.15;14.60;;;;;;;9.55;73.49;95981.19;10529902;28;20043;-75
2021/11/04 03:22:02;;;;;;;21.20;14.60;;;;;;;9.58;73.99;95960.44;10529510;28;20043;-76
2021/11/04 03:27:24;;;;;;;19.00;13.93;;;;;;;9.59;73.71;95948.66;10542690;28;20055;-75
2021/11/04 03:32:45;;;;;;;17.25;14.50;;;;;;;9.61;74.25;95950.81;10515233;28;20032;-76
2021/11/04 03:38:10;;;;;;;17.60;14.35;;;;;;;9.56;74.10;95941.56;10528829;28;20036;-76
2021/11/04 03:43:31;;;;;;;19.35;15.00;;;;;;;9.58;74.62;95940.94;10526178;28;20051;-75
2021/11/04 03:48:53;;;;;;;20.55;15.98;;;;;;;9.57;74.41;95922.81;10498044;28;20055;-76
2021/11/04 03:54:21;;;;;;;17.48;15.15;;;;;;;9.54;75.18;95913.63;10527835;28;20124;-75
2021/11/04 03:59:45;;;;;;;20.00;14.98;;;;;;;9.46;75.07;95891.72;10555165;28;20454;-75
2021/11/04 04:05:08;;;;;;;;;;;;;;;9.48;76.25;95873.69;10528193;28;20103;-75
2021/11/04 04:10:32;;;;;;;16.10;13.95;;;;;;;9.48;76.50;95862.53;10541102;28;19969;-75
2021/11/04 04:15:57;;;;;;;17.38;12.48;;;;;;;9.46;75.47;95838.81;10543068;28;20047;-76
2021/11/04 04:21:19;;;;;;;15.27;12.00;;;;;;;9.52;75.44;95820.91;10540286;28;20484;-74
2021/11/04 04:26:41;;;;;;;15.07;12.32;;;;;;;9.54;75.93;95818.22;10513341;28;20043;-74
2021/11/04 04:32:04;;;;;;;14.00;12.18;;;;;;;9.57;76.01;95789.09;10552938;28;20509;-76
2021/11/04 04:37:26;;;;;;;18.10;12.50;;;;;;;9.62;76.21;95787.91;10524332;28;20374;-75
2021/11/04 04:42:47;;;;;;;14.73;12.35;;;;;;;9.64;76.70;95799.13;10540031;28;20122;-73
2021/11/04 04:48:13;;;;;;;15.70;11.75;;;;;;;9.63;76.66;95800.47;10511147;28;20031;-75
2021/11/04 04:53:35;;;;;;;16.70;12.27;;;;;;;9.68;76.52;95796.50;10538868;28;20055;-75
2021/11/04 04:58:58;;;;;;;15.27;11.60;;;;;;;9.69;76.96;95787.50;10525863;28;20074;-76
2021/11/04 05:04:19;;;;;;;14.73;10.65;;;;;;;9.72;77.17;95769.50;10539513;28;20039;-74
2021/11/04 05:09:42;;;;;;;10.75;9.50;;;;;;;9.74;77.07;95733.34;10523102;27;20036;-76
2021/11/04 05:15:05;;;;;;;13.05;9.93;;;;;;;9.75;77.61;95722.97;10543487;28;20385;-75
2021/11/04 05:20:31;;;;;;;12.15;9.52;;;;;;;9.77;77.70;95736.25;10511658;28;20367;-75
2021/11/04 05:25:53;;;;;;;15.50;11.18;;;;;;;9.72;77.99;95727.72;10497669;28;20063;-76
2021/11/04 05:31:14;;;;;;;16.85;11.98;;;;;;;9.72;78.60;95721.44;10531745;28;20048;-74
2021/11/04 05:36:36;;;;;;;15.63;11.60;;;;;;;9.75;78.27;95714.59;10544846;28;20043;-76
2021/11/04 05:41:57;;;;;;;17.92;12.63;;;;;;;9.77;78.97;95706.31;10561752;28;20471;-73
2021/11/04 05:47:18;;;;;;;16.00;11.57;;;;;;;9.80;79.58;95705.03;10548000;28;20077;-75
2021/11/04 05:52:42;;;;;;;14.50;11.43;;;;;;;9.72;79.71;95677.56;10547747;28;20160;-74
2021/11/04 05:58:04;;;;;;;14.13;11.45;;;;;;;9.77;79.27;95670.09;10561397;28;20096;-75
2021/11/04 06:03:27;;;;;;;14.40;11.82;;;;;;;9.80;80.02;95671.59;10544710;28;20079;-76
2021/11/04 06:08:48;;;;;;;13.23;11.15;;;;;;;9.83;80.29;95675.88;10502238;28;20115;-73
2021/11/04 06:14:09;;;;;;;16.35;11.07;;;;;;;9.91;80.28;95687.31;10542392;28;20482;-76
2021/11/04 06:19:31;;;;;;;17.05;12.07;;;;;;;9.91;80.56;95698.47;10526486;28;20039;-75
2021/11/04 06:24:52;;;;;;;14.45;11.05;;;;;;;9.88;80.11;95699.75;10558276;28;20039;-74
2021/11/04 06:30:13;;;;;;;12.20;9.52;;;;;;;9.91;80.64;95695.69;10543411;28;20048;-76
2021/11/04 06:35:34;;;;;;;12.95;9.73;;;;;;;9.95;80.49;95690.28;10518211;28;20044;-76
2021/11/04 06:40:56;;;;;;;10.50;8.23;;;;;;;9.95;81.07;95709.78;10512748;28;20099;-73
2021/11/04 06:46:22;;;;;;;9.52;7.43;;;;;;;9.94;81.17;95719.50;10536537;28;20470;-75
2021/11/04 06:51:45;;;;;;;9.00;7.03;;;;;;;9.89;81.90;95717.91;10526019;28;20120;-75
2021/11/04 06:57:07;;;;;;;8.00;6.30;;;;;;;9.88;81.67;95710.91;10528741;28;20036;-75
2021/11/04 07:02:37;;;;;;;8.80;6.95;;;;;;;9.89;81.96;95715.13;10539163;28;20070;-75
2021/11/04 07:08:00;;;;;;;8.13;6.93;;;;;;;9.94;82.02;95685.31;10539131;28;20035;-75
2021/11/04 07:13:22;;;;;;;9.10;6.87;;;;;;;10.02;81.93;95666.09;10549697;28;20389;-75
2021/11/04 07:18:46;;;;;;;8.93;7.38;;;;;;;10.15;81.78;95670.78;10537051;28;20712;-76
2021/11/04 07:24:08;;;;;;;4.90;3.20;;;;;;;10.16;80.45;95699.38;10513976;28;20454;-75
2021/11/04 07:29:33;;;;;;;4.22;2.47;;;;;;;9.93;78.82;95695.03;10541051;28;20046;-74
2021/11/04 07:34:58;;;;;;;2.83;1.85;;;;;;;9.73;78.44;95712.44;10497883;28;20070;-75
2021/11/04 07:40:21;;;;;;;3.50;2.05;;;;;;;9.69;78.95;95719.94;10515597;28;20055;-75
2021/11/04 07:45:43;;;;;;;3.10;1.80;;;;;;;9.74;78.76;95725.00;10521298;28;20042;-75
2021/11/04 07:51:04;;;;;;;4.40;1.73;;;;;;;9.82;78.48;95741.31;10542219;28;20071;-75
2021/11/04 07:56:25;;;;;;;2.80;2.03;;;;;;;9.66;77.94;95765.78;10540383;28;20120;-75
2021/11/04 08:01:46;;;;;;;3.55;2.17;;;;;;;9.54;77.82;95752.06;10527722;28;20042;-75
2021/11/04 08:07:07;;;;;;;3.28;1.67;;;;;;;9.59;77.75;95752.97;10541329;28;20462;-76
2021/11/04 08:12:29;;;;;;;1.95;1.02;;;;;;;9.60;77.20;95735.63;10540960;28;20093;-76
2021/11/04 08:17:50;;;;;;;2.42;1.33;;;;;;;9.75;77.46;95742.47;10540639;28;20048;-74
2021/11/04 08:23:13;;;;;;;3.83;1.40;;;;;;;9.79;77.21;95778.09;10538709;28;20047;-74
2021/11/04 08:28:35;;;;;;;3.35;1.85;;;;;;;9.56;76.68;95782.09;10554877;28;20479;-74
2021/11/04 08:33:59;;;;;;;3.38;1.70;;;;;;;9.42;76.71;95782.94;10554366;28;20458;-75
2021/11/04 08:39:20;;;;;;;;;;;;;;;9.29;76.10;95792.16;10540580;28;20031;-73
2021/11/04 08:44:41;;;;;;;2.33;1.10;;;;;;;9.01;76.25;95804.91;10538001;28;19942;-74
2021/11/04 08:50:04;;;;;;;2.30;1.35;;;;;;;8.87;76.22;95808.50;10523138;28;20080;-74
2021/11/04 08:55:25;;;;;;;2.17;1.45;;;;;;;8.91;75.87;95840.63;10523320;28;20543;-75
2021/11/04 09:00:46;;;;;;;2.63;1.23;;;;;;;8.95;76.30;95829.69;10525400;28;20036;-72
2021/11/04 09:06:08;;;;;;;1.50;1.23;;;;;;;9.13;75.47;95822.09;10536719;28;20057;-74
2021/11/04 09:11:34;;;;;;;2.75;1.20;;;;;;;9.23;74.31;95842.00;10540913;28;20046;-74
2021/11/04 09:17:06;;;;;;;4.20;1.10;;;;;;;9.16;74.16;95859.81;10541119;28;20527;-74
2021/11/04 09:22:28;;;;;;;1.87;0.90;;;;;;;8.88;74.08;95860.03;10553386;28;20039;-74
2021/11/04 09:27:50;;;;;;;1.42;0.60;;;;;;;9.49;73.26;95892.53;10538755;28;20350;-74
2021/11/04 09:33:11;;;;;;;2.05;0.63;;;;;;;11.27;69.98;95911.22;10536180;28;20051;-76
2021/11/04 09:38:33;;;;;;;0.75;0.30;;;;;;;16.58;64.95;95924.75;10538743;28;20473;-74
2021/11/04 09:43:56;;;;;;;0.60;0.30;;;;;;;14.31;60.27;95938.53;10538634;28;20039;-75
2021/11/04 09:49:19;;;;;;;0.75;0.30;;;;;;;11.98;61.55;95945.16;10539044;28;20047;-74
2021/11/04 09:54:41;;;;;;;0.60;0.20;;;;;;;10.67;62.74;95955.81;10552603;28;20444;-75
2021/11/04 10:00:04;;;;;;;0.93;0.35;;;;;;;10.20;63.40;95976.25;10538453;28;20039;-74
2021/11/04 10:05:26;;;;;;;0.88;0.30;;;;;;;9.71;63.06;95990.97;10552496;28;20040;-74
2021/11/04 10:10:47;;;;;;;1.65;0.57;;;;;;;9.67;63.62;96009.59;10536478;28;20079;-74
2021/11/04 10:16:09;;;;;;;0.88;0.40;;;;;;;9.50;63.40;96015.78;10525036;28;20051;-75
2021/11/04 10:21:32;;;;;;;1.60;0.60;;;;;;;9.27;63.75;96012.03;10532456;28;20047;-75
2021/11/04 10:26:56;;;;;;;1.55;0.68;;;;;;;9.33;63.67;96015.06;10545834;28;20108;-74
2021/11/04 10:32:32;;;;;;;1.20;0.50;;;;;;;9.56;63.22;96041.13;10560524;28;20036;-76
2021/11/04 10:37:53;;;;;;;1.33;0.70;;;;;;;11.21;62.51;96011.56;10547471;28;20377;-76
2021/11/04 10:43:14;;;;;;;0.90;0.30;;;;;;;11.94;58.75;96047.75;10559765;28;20379;-80
2021/11/04 10:48:36;;;;;;;0.80;0.32;;;;;;;11.90;58.39;96042.75;10545449;28;20046;-81
2021/11/04 10:54:11;;;;;;;1.60;0.20;;;;;;;12.06;56.82;96053.03;10543746;28;20047;-81
2021/11/04 10:59:47;;;;;;;0.88;0.30;;;;;;;11.88;57.16;96064.34;10544988;28;20405;-81
2021/11/04 11:05:25;;;;;;;1.40;0.35;;;;;;;11.76;56.09;96095.31;10559537;28;20100;-81
2021/11/04 11:10:46;;;;;;;0.40;0.10;;;;;;;11.25;56.30;96103.88;10558902;28;20111;-80
2021/11/04 11:16:17;;;;;;;1.75;0.20;;;;;;;10.80;56.82;96127.22;10560167;28;20054;-80
2021/11/04 11:21:42;;;;;;;0.93;0.40;;;;;;;10.49;57.94;96137.16;10558011;28;20040;-83
2021/11/04 11:27:09;;;;;;;0.73;0.20;;;;;;;10.52;57.57;96146.34;10572234;28;20473;-80
2021/11/04 11:32:32;;;;;;;0.43;0.20;;;;;;;10.67;57.51;96167.16;10529961;28;20355;-77
2021/11/04 11:37:56;;;;;;;0.30;0.10;;;;;;;10.97;57.16;96170.50;10537488;28;20044;-77
2021/11/04 11:43:17;;;;;;;;;;;;;;;11.16;56.45;96176.16;10568940;28;20044;-74
2021/11/04 11:48:38;;;;;;;0.43;0.20;;;;;;;11.25;56.72;96196.06;10532686;28;19916;-79
2021/11/04 11:54:00;;;;;;;1.02;0.22;;;;;;;10.91;56.22;96187.00;10541240;28;20047;-80
2021/11/04 11:59:29;;;;;;;6.13;0.40;;;;;;;10.46;56.89;96210.94;10554995;28;20538;-80
2021/11/04 12:04:51;;;;;;;1.58;0.10;;;;;;;10.33;57.47;96209.00;10546115;28;20028;-80
2021/11/04 12:10:31;;;;;;;0.35;0.10;;;;;;;10.23;57.65;96222.47;10538823;28;20050;-79
2021/11/04 12:16:20;;;;;;;0.57;0.17;;;;;;;10.35;57.99;96211.16;10579715;28;20051;-77
2021/11/04 12:21:41;;;;;;;0.32;0.20;;;;;;;10.74;57.25;96214.22;10549894;28;20105;-80
2021/11/04 12:27:09;;;;;;;0.45;0.10;;;;;;;10.79;56.92;96229.06;10544519;28;20461;-77
2021/11/04 12:32:30;;;;;;;0.50;0.10;;;;;;;10.69;57.11;96245.38;10537911;28;20381;-81
2021/11/04 12:37:52;;;;;;;0.80;0.38;;;;;;;10.63;57.49;96265.38;10538467;28;20046;-78
2021/11/04 12:43:14;;;;;;;0.75;0.20;;;;;;;10.52;57.51;96247.50;10538200;28;20040;-79
2021/11/04 12:48:47;;;;;;;2.22;0.20;;;;;;;10.40;58.06;96255.31;10544492;28;20123;-77
2021/11/04 12:54:18;;;;;;;0.75;0.30;;;;;;;10.36;58.15;96257.94;10565702;28;20085;-76
2021/11/04 12:59:47;;;;;;;0.50;0.20;;;;;;;10.46;58.54;96261.16;10546852;28;20035;-75
2021/11/04 13:05:13;;;;;;;1.55;0.40;;;;;;;10.59;57.98;96257.53;10551699;28;20042;-74
2021/11/04 13:10:37;;;;;;;2.17;0.40;;;;;;;10.50;58.77;96271.78;10523481;28;20042;-75
2021/11/04 13:15:58;;;;;;;3.05;0.40;;;;;;;10.34;58.65;96282.94;10544771;28;20039;-74
2021/11/04 13:21:26;;;;;;;1.20;0.52;;;;;;;10.31;59.47;96282.09;10543112;28;20039;-75
2021/11/04 13:26:47;;;;;;;3.90;0.30;;;;;;;10.08;59.58;96301.22;10545591;28;20043;-74
2021/11/04 13:32:12;;;;;;;1.50;0.28;;;;;;;9.95;60.01;96300.66;10533916;28;20035;-81
2021/11/04 13:37:33;;;;;;;1.02;0.40;;;;;;;9.88;60.08;96318.44;10540403;28;20382;-75
2021/11/04 13:42:54;;;;;;;0.73;0.30;;;;;;;9.69;60.30;96335.66;10539224;28;20039;-78
2021/11/04 13:48:15;;;;;;;0.95;0.38;;;;;;;9.60;60.83;96364.44;10539312;28;20042;-77
2021/11/04 13:53:37;;;;;;;0.70;0.30;;;;;;;9.59;60.75;96360.22;10543834;28;20081;-77
2021/11/04 13:58:59;;;;;;;1.42;0.30;;;;;;;9.51;60.46;96382.09;10546890;28;20032;-78
2021/11/04 14:04:20;;;;;;;0.65;0.20;;;;;;;9.36;60.55;96386.97;10560920;28;20035;-73
2021/11/04 14:09:42;;;;;;;0.55;0.30;;;;;;;9.36;60.67;96389.78;10546770;28;20504;-74
2021/11/04 14:15:20;;;;;;;0.40;0.20;;;;;;;9.34;60.81;96405.63;10546927;28;20421;-81
2021/11/04 14:20:41;;;;;;;0.63;0.38;;;;;;;9.12;61.12;96388.53;10559769;28;20374;-82
2021/11/04 14:26:02;;;;;;;0.77;0.30;;;;;;;9.03;61.54;96418.00;10545813;28;20032;-81
2021/11/04 14:31:25;;;;;;;1.15;0.30;;;;;;;8.92;61.44;96443.84;10559474;28;20055;-81
2021/11/04 14:36:48;;;;;;;0.85;0.30;;;;;;;8.81;61.35;96431.47;10543593;28;20500;-75
2021/11/04 14:42:09;;;;;;;1.25;0.20;;;;;;;8.84;61.51;96449.00;10542571;28;20043;-73
2021/11/04 14:47:31;;;;;;;0.93;0.50;;;;;;;8.79;61.62;96456.41;10534487;28;20052;-80
2021/11/04 14:52:53;;;;;;;1.15;0.40;;;;;;;8.80;61.39;96466.19;10544657;28;20050;-78
2021/11/04 14:58:14;;;;;;;0.75;0.32;;;;;;;8.83;61.00;96498.34;10530717;28;20051;-75
2021/11/04 15:03:35;;;;;;;0.70;0.40;;;;;;;8.70;61.46;96496.25;10528147;28;20429;-74
2021/11/04 15:08:57;;;;;;;1.15;0.40;;;;;;;8.65;61.38;96511.28;10544177;28;20126;-79
2021/11/04 15:14:20;;;;;;;1.00;0.20;;;;;;;8.63;61.41;96513.94;10543929;28;20052;-76
2021/11/04 15:19:41;;;;;;;0.55;0.20;;;;;;;8.57;61.44;96527.50;10544048;28;20039;-76
2021/11/04 15:25:03;;;;;;;1.02;0.30;;;;;;;8.48;61.11;96558.97;10543109;28;20433;-75
2021/11/04 15:30:24;;;;;;;0.70;0.45;;;;;;;8.44;61.23;96562.25;10556848;28;20070;-74
2021/11/04 15:35:45;;;;;;;2.13;0.30;;;;;;;8.41;61.69;96585.75;10543117;28;20370;-76
2021/11/04 15:41:06;;;;;;;2.10;0.40;;;;;;;8.30;61.99;96576.06;10542884;28;20032;-76
2021/11/04 15:46:28;;;;;;;1.80;0.55;;;;;;;8.31;62.58;96582.34;10528527;28;20470;-79
2021/11/04 15:51:49;;;;;;;1.63;0.50;;;;;;;8.30;61.96;96578.84;10528653;28;20104;-75
2021/11/04 15:57:10;;;;;;;2.55;0.50;;;;;;;8.23;62.29;96606.91;10541887;28;20039;-77
2021/11/04 16:02:32;;;;;;;1.35;0.60;;;;;;;8.18;62.59;96605.94;10527669;28;20100;-77
2021/11/04 16:07:54;;;;;;;1.60;0.45;;;;;;;8.14;62.87;96604.97;10541143;28;20044;-77
2021/11/04 16:13:15;;;;;;;2.05;0.60;;;;;;;8.10;62.74;96621.41;10541094;28;20039;-78
2021/11/04 16:18:36;;;;;;;0.77;0.40;;;;;;;8.06;63.16;96643.41;10512097;28;20040;-77
2021/11/04 16:24:02;;;;;;;1.05;0.50;;;;;;;7.97;63.43;96639.41;10498367;28;20098;-74
2021/11/04 16:29:23;;;;;;;0.85;0.50;;;;;;;7.90;63.68;96688.34;10486217;28;20069;-78
2021/11/04 16:34:45;;;;;;;1.23;0.73;;;;;;;7.92;63.64;96701.66;10510136;28;20040;-77
2021/11/04 16:40:13;;;;;;;1.58;0.60;;;;;;;7.86;63.65;96704.06;10498361;28;20036;-81
2021/11/04 16:45:36;;;;;;;1.02;0.40;;;;;;;7.86;64.35;96693.66;10482965;28;20048;-75
2021/11/04 16:50:58;;;;;;;1.20;0.60;;;;;;;7.93;64.09;96708.66;10526062;28;20474;-77
2021/11/04 16:56:19;;;;;;;2.40;0.52;;;;;;;7.98;63.92;96711.06;10484250;28;20437;-78
2021/11/04 17:01:43;;;;;;;1.42;0.70;;;;;;;8.01;63.82;96700.81;10511826;28;20459;-77
2021/11/04 17:07:04;;;;;;;2.10;0.70;;;;;;;7.96;64.09;96729.69;10525912;28;20127;-77
2021/11/04 17:12:26;;;;;;;1.25;0.60;;;;;;;7.91;63.79;96716.84;10484241;28;20048;-80
2021/11/04 17:17:47;;;;;;;1.30;0.60;;;;;;;7.83;64.31;96719.16;10549077;28;20500;-82
2021/11/04 17:23:10;;;;;;;1.40;0.77;;;;;;;7.74;64.34;96732.53;10553062;28;20040;-79
2021/11/04 17:28:31;;;;;;;1.15;0.60;;;;;;;7.68;64.24;96718.28;10539467;28;20111;-80
2021/11/04 17:33:53;;;;;;;1.45;0.63;;;;;;;7.65;64.47;96746.53;10539098;28;20096;-79
2021/11/04 17:39:14;;;;;;;1.65;0.70;;;;;;;7.69;64.61;96778.03;10553124;28;20036;-76
2021/11/04 17:44:35;;;;;;;1.67;0.60;;;;;;;7.67;64.65;96761.25;10538833;28;20040;-75
2021/11/04 17:49:58;;;;;;;1.30;0.70;;;;;;;7.66;64.83;96787.59;10552812;28;20039;-82
2021/11/04 17:55:19;;;;;;;1.17;0.68;;;;;;;7.61;64.88;96796.97;10524958;28;20092;-81
2021/11/04 18:00:41;;;;;;;1.40;0.70;;;;;;;7.57;64.79;96813.38;10566567;28;20051;-77
2021/11/04 18:06:02;;;;;;;1.08;0.50;;;;;;;7.54;64.91;96814.59;10581577;28;20351;-77
2021/11/04 18:11:23;;;;;;;1.20;0.50;;;;;;;7.50;65.37;96817.09;10524841;28;20069;-81
2021/11/04 18:16:45;;;;;;;0.90;0.40;;;;;;;7.42;64.70;96828.41;10538146;28;20490;-76
2021/11/04 18:22:06;;;;;;;1.48;0.50;;;;;;;7.38;65.24;96857.97;10552264;28;20126;-77
2021/11/04 18:27:27;;;;;;;1.65;0.60;;;;;;;7.32;65.29;96860.34;10533006;28;20035;-81
2021/11/04 18:32:49;;;;;;;2.45;0.50;;;;;;;7.24;65.70;96865.34;10551192;28;20047;-77
2021/11/04 18:38:10;;;;;;;1.10;0.57;;;;;;;7.17;65.96;96861.47;10524518;28;20111;-81
2021/11/04 18:43:32;;;;;;;1.42;0.57;;;;;;;7.14;65.92;96880.03;10541542;28;20059;-82
2021/11/04 18:48:54;;;;;;;1.15;0.50;;;;;;;7.07;66.23;96883.72;10558977;28;20047;-81
2021/11/04 18:54:17;;;;;;;0.73;0.40;;;;;;;7.06;66.57;96901.69;10544697;28;20032;-82
2021/11/04 18:59:38;;;;;;;1.15;0.50;;;;;;;7.03;66.38;96908.41;10544949;28;20043;-76
2021/11/04 19:04:59;;;;;;;1.00;0.50;;;;;;;7.02;66.66;96920.81;10544294;28;20165;-82
2021/11/04 19:10:21;;;;;;;1.73;0.80;;;;;;;7.00;66.69;96931.06;10543722;28;20040;-76
2021/11/04 19:15:42;;;;;;;1.42;0.70;;;;;;;6.97;67.20;96932.97;10544324;28;20478;-81
2021/11/04 19:21:03;;;;;;;2.15;0.88;;;;;;;6.97;66.53;96943.34;10543068;28;20521;-79
2021/11/04 19:26:27;;;;;;;2.60;1.02;;;;;;;6.92;66.93;96958.25;10544289;28;20036;-79
2021/11/04 19:31:48;;;;;;;2.30;1.52;;;;;;;6.92;66.82;96970.09;10542846;28;20039;-77
2021/11/04 19:37:09;;;;;;;2.20;1.27;;;;;;;6.88;67.02;96986.47;10542994;28;20457;-79
2021/11/04 19:42:31;;;;;;;3.30;1.88;;;;;;;6.89;67.16;97001.78;10542217;28;20350;-81
2021/11/04 19:47:52;;;;;;;2.83;1.80;;;;;;;6.91;66.92;97001.91;10521657;28;20126;-79
2021/11/04 19:53:14;;;;;;;3.03;2.05;;;;;;;6.88;67.02;97014.94;10527655;28;20074;-78
2021/11/04 19:58:36;;;;;;;3.60;2.25;;;;;;;6.86;67.09;97023.13;10554411;28;20495;-81
2021/11/04 20:03:58;;;;;;;3.88;2.70;;;;;;;6.90;66.59;97033.75;10555477;28;20043;-82
2021/11/04 20:09:19;;;;;;;4.70;2.60;;;;;;;6.85;67.38;97070.84;10527053;28;20093;-82
2021/11/04 20:14:40;;;;;;;4.15;2.42;;;;;;;6.87;67.47;97054.38;10540666;28;20047;-77
2021/11/04 20:20:02;;;;;;;3.88;2.97;;;;;;;6.90;67.61;97080.91;10526295;28;20093;-75
2021/11/04 20:25:24;;;;;;;5.28;3.08;;;;;;;6.91;67.69;97087.19;10540110;28;20470;-76
2021/11/04 20:30:46;;;;;;;4.35;3.00;;;;;;;6.95;67.49;97087.47;10523862;28;20051;-79
2021/11/04 20:36:07;;;;;;;6.15;4.30;;;;;;;7.02;67.50;97098.41;10539653;28;20031;-76
2021/11/04 20:41:28;;;;;;;7.10;4.38;;;;;;;7.06;67.03;97098.00;10534848;28;20497;-75
2021/11/04 20:46:50;;;;;;;5.30;3.83;;;;;;;7.09;67.13;97108.63;10554040;28;20036;-74
2021/11/04 20:52:12;;;;;;;6.70;4.00;;;;;;;7.04;67.06;97123.53;10536643;28;20051;-74
2021/11/04 20:57:34;;;;;;;4.93;3.38;;;;;;;7.02;67.24;97114.34;10553148;28;20375;-77
2021/11/04 21:02:55;;;;;;;5.00;3.42;;;;;;;6.94;67.13;97128.38;10538600;28;20062;-79
2021/11/04 21:08:18;;;;;;;5.40;3.63;;;;;;;6.91;66.90;97139.91;10525161;28;20047;-77
2021/11/04 21:13:40;;;;;;;6.88;3.72;;;;;;;6.86;67.18;97138.91;10552433;28;20093;-76
2021/11/04 21:19:03;;;;;;;6.13;3.63;;;;;;;6.83;66.97;97151.88;10552422;28;20139;-77
2021/11/04 21:24:24;;;;;;;6.57;4.15;;;;;;;6.81;67.01;97164.88;10525360;28;20486;-76
2021/11/04 21:29:46;;;;;;;5.63;3.88;;;;;;;6.77;67.36;97170.16;10524958;28;20173;-81
2021/11/04 21:35:08;;;;;;;6.30;3.55;;;;;;;6.85;66.68;97179.03;10537914;28;20040;-77
2021/11/04 21:40:30;;;;;;;5.70;3.83;;;;;;;6.80;66.59;97189.13;10537333;28;20055;-80
2021/11/04 21:45:52;;;;;;;5.53;3.75;;;;;;;6.78;66.93;97199.34;10528917;28;20466;-78
2021/11/04 21:51:13;;;;;;;5.53;3.90;;;;;;;6.86;66.68;97199.94;10536990;28;20122;-81
2021/11/04 21:56:34;;;;;;;6.65;3.63;;;;;;;6.89;66.38;97209.88;10523679;28;20489;-76
2021/11/04 22:01:56;;;;;;;7.50;3.60;;;;;;;6.77;66.73;97215.25;10518784;28;20466;-75
2021/11/04 22:07:19;;;;;;;6.15;3.47;;;;;;;6.71;66.40;97202.97;10523679;28;20032;-76
2021/11/04 22:12:40;;;;;;;5.93;3.67;;;;;;;6.66;66.67;97220.63;10537356;28;20031;-75
2021/11/04 22:18:01;;;;;;;5.72;3.20;;;;;;;6.62;66.87;97231.44;10503523;28;20055;-75
2021/11/04 22:23:23;;;;;;;4.65;3.25;;;;;;;6.59;66.67;97245.16;10502845;28;20039;-76
2021/11/04 22:28:45;;;;;;;6.63;3.50;;;;;;;6.56;66.69;97245.56;10486304;28;20165;-77
2021/11/04 22:34:07;;;;;;;6.43;3.70;;;;;;;6.56;66.78;97267.75;10500719;28;20044;-77
2021/11/04 22:39:30;;;;;;;5.20;3.45;;;;;;;6.54;67.08;97264.81;10530404;28;20492;-77
2021/11/04 22:44:51;;;;;;;7.00;3.95;;;;;;;6.52;67.13;97284.81;10516883;28;20036;-76
2021/11/04 22:50:13;;;;;;;5.35;3.80;;;;;;;6.63;66.89;97280.75;10502260;28;20352;-76
2021/11/04 22:55:35;;;;;;;6.47;4.90;;;;;;;6.72;66.98;97307.06;10501943;28;20044;-76
2021/11/04 23:00:58;;;;;;;5.82;3.80;;;;;;;6.84;67.20;97308.69;10488037;28;20090;-77
2021/11/04 23:06:21;;;;;;;5.45;3.80;;;;;;;6.93;66.59;97314.84;10487975;28;20042;-77
2021/11/04 23:11:43;;;;;;;4.68;3.78;;;;;;;7.01;66.53;97327.28;10501693;28;20036;-77
2021/11/04 23:17:06;;;;;;;4.82;3.40;;;;;;;7.02;66.24;97316.91;10512602;28;20047;-75
2021/11/04 23:22:27;;;;;;;4.75;2.95;;;;;;;6.87;66.47;97326.97;10539820;28;20062;-77
2021/11/04 23:27:50;;;;;;;5.00;3.40;;;;;;;6.91;66.26;97343.19;10542195;28;20385;-78
2021/11/04 23:33:12;;;;;;;6.35;3.20;;;;;;;7.05;66.33;97357.41;10542751;28;20039;-77
2021/11/04 23:38:33;;;;;;;3.85;2.85;;;;;;;7.21;66.10;97363.41;10528445;28;20035;-76
2021/11/04 23:43:55;;;;;;;5.32;3.47;;;;;;;7.34;66.06;97376.91;10541550;28;20040;-76
2021/11/04 23:49:19;;;;;;;5.05;3.28;;;;;;;7.43;65.61;97382.47;10525813;28;20061;-77
2021/11/04 23:54:41;;;;;;;4.28;3.72;;;;;;;7.49;65.60;97379.38;10541863;28;20419;-78
